Time;durP1;ratioP1;P1;durP2;ratioP2;P2;SDS_P1;SDS_P2;PMS_P1;PMS_P2;Temp;Humidity;BMP_temperature;BMP_pressure;BME280_temperature;BME280_humidity;BME280_pressure;Samples;Min_cycle;Max_cycle;Signal;HPM_P1;HPM_P2
2022/02/23 00:00:33;;;;;;;9.73;5.03;;;;;;;-1.53;80.61;95729.20;1723952;83;21074;-68
2022/02/23 00:03:01;;;;;;;7.27;3.43;;;;;;;-1.50;80.39;95716.77;1724303;83;21042;-68
2022/02/23 00:05:28;;;;;;;6.63;3.57;;;;;;;-1.49;80.13;95716.34;1724205;83;21026;-68
2022/02/23 00:07:55;;;;;;;10.83;5.10;;;;;;;-1.45;80.45;95710.02;1724458;82;21067;-68
2022/02/23 00:10:21;;;;;;;7.00;4.20;;;;;;;-1.47;80.60;95709.51;1724364;83;21552;-68
2022/02/23 00:12:48;;;;;;;6.47;4.40;;;;;;;-1.40;80.56;95719.21;1724229;83;20991;-68
2022/02/23 00:15:15;;;;;;;7.80;3.77;;;;;;;-1.47;80.38;95725.91;1724035;83;21046;-68
2022/02/23 00:17:41;;;;;;;9.80;5.10;;;;;;;-1.47;80.25;95725.03;1724272;83;21106;-68
2022/02/23 00:20:09;;;;;;;7.33;3.27;;;;;;;-1.49;80.39;95731.45;1724032;82;21038;-68
2022/02/23 00:22:37;;;;;;;11.77;6.57;;;;;;;-1.48;79.78;95729.34;1724336;83;21026;-68
2022/02/23 00:25:04;;;;;;;32.03;16.33;;;;;;;-1.59;80.38;95723.86;1724406;83;21013;-68
2022/02/23 00:27:32;;;;;;;58.93;27.23;;;;;;;-1.68;80.54;95723.56;1724234;83;20987;-68
2022/02/23 00:29:58;;;;;;;51.93;22.47;;;;;;;-1.69;79.93;95726.09;1724497;83;20995;-68
2022/02/23 00:32:25;;;;;;;7.77;4.20;;;;;;;-1.68;80.36;95720.11;1724552;83;21014;-68
2022/02/23 00:34:52;;;;;;;5.20;3.07;;;;;;;-1.53;80.99;95715.39;1718698;82;21090;-68
2022/02/23 00:37:18;;;;;;;6.50;3.23;;;;;;;-1.47;80.52;95707.79;1716442;83;21009;-68
2022/02/23 00:39:45;;;;;;;6.47;3.50;;;;;;;-1.38;80.63;95707.20;1716229;84;21135;-68
2022/02/23 00:42:12;;;;;;;7.13;3.70;;;;;;;-1.24;80.79;95695.93;1716210;83;21003;-68
2022/02/23 00:44:38;;;;;;;5.13;3.30;;;;;;;-1.19;80.37;95694.34;1716438;83;21481;-68
2022/02/23 00:47:05;;;;;;;23.93;10.30;;;;;;;-1.24;80.30;95706.28;1716563;83;21019;-68
2022/02/23 00:49:31;;;;;;;28.27;14.57;;;;;;;-1.32;79.73;95704.77;1716353;84;21055;-68
2022/02/23 00:51:58;;;;;;;31.60;16.27;;;;;;;-1.37;80.56;95706.35;1716666;83;21027;-68
2022/02/23 00:54:25;;;;;;;28.43;15.33;;;;;;;-1.32;80.86;95714.70;1716491;84;21015;-68
2022/02/23 00:56:51;;;;;;;27.60;14.43;;;;;;;-1.34;80.93;95715.07;1716197;83;21031;-69
2022/02/23 00:59:18;;;;;;;24.57;12.60;;;;;;;-1.28;81.02;95708.34;1716452;84;21014;-68
2022/02/23 01:01:44;;;;;;;9.80;4.27;;;;;;;-1.25;80.96;95710.59;1715976;84;21830;-68
2022/02/23 01:04:11;;;;;;;17.23;9.07;;;;;;;-1.22;80.74;95718.44;1686650;84;21506;-68
2022/02/23 01:06:38;;;;;;;21.70;12.10;;;;;;;-1.14;81.18;95718.23;1716334;83;21036;-68
2022/02/23 01:09:05;;;;;;;23.43;12.57;;;;;;;-1.01;81.29;95718.58;1716132;84;21521;-68
2022/02/23 01:11:33;;;;;;;9.47;4.80;;;;;;;-0.98;80.79;95721.28;1716140;84;21111;-68
2022/02/23 01:14:01;;;;;;;25.90;12.17;;;;;;;-0.86;80.72;95722.88;1716335;83;21070;-68
2022/02/23 01:16:28;;;;;;;27.87;14.67;;;;;;;-0.77;80.68;95723.56;1716223;84;21027;-68
2022/02/23 01:18:55;;;;;;;42.07;22.03;;;;;;;-0.84;80.16;95728.98;1716510;84;21043;-68
2022/02/23 01:21:21;;;;;;;34.83;19.90;;;;;;;-0.84;80.20;95725.52;1716431;84;21039;-68
2022/02/23 01:23:48;;;;;;;40.90;21.13;;;;;;;-0.77;80.25;95727.45;1715950;83;21039;-68
2022/02/23 01:26:15;;;;;;;35.50;18.37;;;;;;;-0.72;80.07;95721.55;1716227;83;21091;-68
2022/02/23 01:28:42;;;;;;;34.17;17.60;;;;;;;-0.63;80.07;95722.62;1715864;84;21003;-68
2022/02/23 01:31:09;;;;;;;36.23;18.80;;;;;;;-0.60;79.65;95726.19;1716098;84;21110;-68
2022/02/23 01:33:35;;;;;;;37.73;18.73;;;;;;;-0.70;79.40;95738.02;1716314;82;21019;-69
2022/02/23 01:36:04;;;;;;;35.63;17.53;;;;;;;-0.78;79.75;95733.45;1716532;84;21015;-68
2022/02/23 01:38:31;;;;;;;30.73;18.00;;;;;;;-0.90;79.52;95731.42;1716317;84;21062;-68
2022/02/23 01:40:58;;;;;;;36.13;18.77;;;;;;;-0.96;80.22;95719.58;1716505;84;20975;-68
2022/02/23 01:43:24;;;;;;;32.77;17.70;;;;;;;-0.95;81.23;95721.35;1715889;84;21130;-71
2022/02/23 01:45:51;;;;;;;37.30;17.70;;;;;;;-0.91;81.14;95721.88;1716659;83;21493;-69
2022/02/23 01:48:18;;;;;;;22.03;12.93;;;;;;;-1.06;82.25;95721.45;1716139;83;21103;-68
2022/02/23 01:50:45;;;;;;;21.57;12.10;;;;;;;-0.99;81.28;95728.14;1716264;84;21035;-69
2022/02/23 01:53:14;;;;;;;9.80;5.00;;;;;;;-0.88;81.43;95721.98;1716233;84;21067;-68
2022/02/23 01:55:41;;;;;;;8.40;4.80;;;;;;;-0.71;81.74;95719.83;1716414;83;21544;-68
2022/02/23 01:58:07;;;;;;;15.83;8.23;;;;;;;-0.57;81.75;95723.67;1716222;83;21493;-68
2022/02/23 02:00:34;;;;;;;26.40;15.07;;;;;;;-0.54;81.58;95726.33;1716503;83;21018;-68
2022/02/23 02:03:01;;;;;;;29.17;15.90;;;;;;;-0.51;81.61;95726.41;1716102;84;21067;-68
2022/02/23 02:05:28;;;;;;;38.67;20.57;;;;;;;-0.46;81.35;95717.45;1716151;84;21557;-69
2022/02/23 02:07:54;;;;;;;47.50;20.33;;;;;;;-0.46;80.98;95720.92;1716125;84;21039;-68
2022/02/23 02:10:21;;;;;;;34.57;18.53;;;;;;;-0.47;80.90;95720.47;1740908;81;21564;-68
2022/02/23 02:12:47;;;;;;;31.70;17.23;;;;;;;-0.57;80.60;95719.78;1716397;84;21063;-68
2022/02/23 02:15:14;;;;;;;35.83;17.80;;;;;;;-0.72;81.37;95721.55;1716460;84;21561;-68
2022/02/23 02:17:41;;;;;;;30.20;16.47;;;;;;;-0.78;81.78;95730.47;1716483;84;21019;-68
2022/02/23 02:20:11;;;;;;;29.57;17.03;;;;;;;-0.81;81.84;95734.24;1716303;84;21043;-68
2022/02/23 02:22:39;;;;;;;31.67;17.20;;;;;;;-0.80;81.53;95737.73;1716448;84;21047;-69
2022/02/23 02:25:07;;;;;;;36.23;17.27;;;;;;;-0.83;82.56;95735.94;1716631;83;21015;-68
2022/02/23 02:27:34;;;;;;;29.20;16.40;;;;;;;-0.77;82.45;95732.63;1716243;84;21031;-69
2022/02/23 02:30:00;;;;;;;26.40;14.90;;;;;;;-0.66;82.39;95737.27;1716453;84;21549;-68
2022/02/23 02:32:27;;;;;;;21.47;12.27;;;;;;;-0.65;81.58;95731.66;1716240;83;21008;-68
2022/02/23 02:34:54;;;;;;;20.20;10.57;;;;;;;-0.68;81.94;95732.47;1716229;84;21039;-68
2022/02/23 02:37:21;;;;;;;13.87;8.00;;;;;;;-0.71;81.85;95734.95;1716178;83;21035;-69
2022/02/23 02:39:47;;;;;;;20.57;11.37;;;;;;;-0.69;82.20;95731.98;1716193;83;21038;-68
2022/02/23 02:42:14;;;;;;;15.53;9.30;;;;;;;-0.58;82.46;95729.70;1716196;84;21063;-68
2022/02/23 02:44:42;;;;;;;16.20;9.97;;;;;;;-0.46;82.53;95733.88;1716388;83;20979;-69
2022/02/23 02:47:09;;;;;;;24.23;11.77;;;;;;;-0.41;82.00;95728.82;1715977;83;21110;-68
2022/02/23 02:49:36;;;;;;;13.07;7.80;;;;;;;-0.34;81.56;95729.86;1716463;84;21455;-68
2022/02/23 02:52:04;;;;;;;31.50;16.93;;;;;;;-0.40;80.89;95733.58;1716665;83;21050;-68
2022/02/23 02:54:31;;;;;;;33.20;16.40;;;;;;;-0.46;81.01;95729.98;1716481;83;21541;-69
2022/02/23 02:56:58;;;;;;;28.93;15.03;;;;;;;-0.57;81.23;95725.39;1716354;84;21023;-68
2022/02/23 02:59:24;;;;;;;21.20;13.47;;;;;;;-0.67;81.22;95731.61;1716362;84;21035;-68
2022/02/23 03:01:51;;;;;;;26.87;16.13;;;;;;;-0.85;82.07;95731.55;1716006;84;21158;-69
2022/02/23 03:04:18;;;;;;;33.97;22.00;;;;;;;-0.93;81.67;95721.85;1716314;84;21031;-68
2022/02/23 03:06:45;;;;;;;17.57;8.27;;;;;;;-0.98;81.55;95725.16;1716423;83;21059;-68
2022/02/23 03:09:12;;;;;;;9.07;4.83;;;;;;;-1.02;81.48;95716.83;1716110;83;21533;-68
2022/02/23 03:23:35;;;;;;;6.13;3.90;;;;;;;-0.11;78.50;95707.96;1857813;77;23095;-68
2022/02/23 03:26:02;;;;;;;4.77;2.80;;;;;;;-0.42;78.34;95706.77;1826851;78;21074;-68
2022/02/23 03:28:31;;;;;;;5.10;2.57;;;;;;;-0.64;78.82;95707.92;1826565;78;21006;-68
2022/02/23 03:30:59;;;;;;;4.97;2.10;;;;;;;-0.68;79.65;95712.13;1826470;78;21033;-68
2022/02/23 03:33:25;;;;;;;4.13;2.20;;;;;;;-0.74;79.55;95714.56;1827039;78;21498;-68
2022/02/23 03:35:52;;;;;;;4.43;2.30;;;;;;;-0.83;79.62;95715.61;1826338;78;21539;-68
2022/02/23 03:38:19;;;;;;;4.87;2.70;;;;;;;-0.85;79.99;95714.29;1793637;78;21010;-68
2022/02/23 03:40:46;;;;;;;4.37;2.73;;;;;;;-0.84;80.17;95709.55;1826537;78;21093;-68
2022/02/23 03:43:17;;;;;;;4.67;2.73;;;;;;;-0.79;80.51;95707.97;1826644;78;20998;-68
2022/02/23 03:45:42;;;;;;;6.13;4.13;;;;;;;-0.79;80.15;95719.63;1826713;78;20963;-68
2022/02/23 03:48:08;;;;;;;9.67;4.47;;;;;;;-0.85;79.89;95718.17;1826790;78;20975;-68
2022/02/23 03:50:35;;;;;;;8.30;3.00;;;;;;;-0.93;79.69;95708.91;1826407;78;21516;-68
2022/02/23 03:53:02;;;;;;;3.90;2.87;;;;;;;-1.03;79.49;95713.77;1826747;78;21467;-67
2022/02/23 03:55:30;;;;;;;3.70;2.43;;;;;;;-1.17;79.32;95719.45;1826331;78;21011;-68
2022/02/23 03:57:56;;;;;;;6.50;3.33;;;;;;;-1.20;79.80;95723.25;1826779;78;21007;-68
2022/02/23 04:00:24;;;;;;;4.17;2.30;;;;;;;-1.14;80.40;95724.70;1826446;78;21084;-68
2022/02/23 04:02:50;;;;;;;4.80;2.33;;;;;;;-1.12;80.23;95724.33;1826926;78;21475;-68
2022/02/23 04:05:17;;;;;;;5.20;2.80;;;;;;;-1.03;80.56;95722.44;1826897;78;21063;-68
2022/02/23 04:07:45;;;;;;;3.30;2.23;;;;;;;-0.98;80.16;95722.15;1826870;78;21042;-68
2022/02/23 04:10:13;;;;;;;4.70;2.43;;;;;;;-1.01;79.87;95728.51;1826991;78;21444;-68
2022/02/23 04:12:40;;;;;;;7.50;4.50;;;;;;;-1.10;79.37;95728.27;1793588;78;21566;-68
2022/02/23 04:15:08;;;;;;;12.23;7.13;;;;;;;-1.17;79.86;95731.52;1826399;78;21535;-68
2022/02/23 04:17:34;;;;;;;18.90;8.57;;;;;;;-1.20;79.77;95740.50;1826842;78;21038;-68
2022/02/23 04:20:01;;;;;;;5.07;3.00;;;;;;;-1.25;79.92;95741.66;1826516;78;21006;-68
2022/02/23 04:22:29;;;;;;;6.50;2.97;;;;;;;-1.29;79.78;95747.98;1829301;78;20998;-68
2022/02/23 04:24:55;;;;;;;4.63;2.70;;;;;;;-1.27;79.75;95735.97;1831974;78;21037;-68
2022/02/23 04:27:22;;;;;;;4.33;2.33;;;;;;;-1.27;80.06;95742.02;1832075;78;21030;-68
2022/02/23 04:29:49;;;;;;;6.60;2.37;;;;;;;-1.29;79.80;95740.22;1831610;78;21030;-68
2022/02/23 04:32:16;;;;;;;4.50;2.53;;;;;;;-1.29;79.94;95738.50;1831811;78;21049;-68
2022/02/23 04:34:43;;;;;;;5.27;2.30;;;;;;;-1.29;79.80;95736.34;1831680;78;21548;-68
2022/02/23 04:37:10;;;;;;;5.63;3.17;;;;;;;-1.34;79.89;95734.48;1831932;78;21518;-68
2022/02/23 04:39:37;;;;;;;8.93;5.43;;;;;;;-1.37;80.64;95737.41;1831471;78;21001;-68
2022/02/23 04:42:08;;;;;;;10.10;5.50;;;;;;;-1.37;80.87;95733.11;1831969;78;21030;-67
2022/02/23 04:44:33;;;;;;;6.20;3.80;;;;;;;-1.36;80.83;95737.86;1831484;78;21006;-68
2022/02/23 04:47:00;;;;;;;10.47;5.07;;;;;;;-1.37;81.32;95730.52;1832015;78;21001;-67
2022/02/23 04:49:27;;;;;;;11.27;4.73;;;;;;;-1.28;81.63;95738.11;1832097;78;20989;-68
2022/02/23 04:51:53;;;;;;;15.03;6.70;;;;;;;-1.25;81.25;95731.72;1831691;78;21013;-68
2022/02/23 04:54:20;;;;;;;12.97;7.50;;;;;;;-1.35;81.15;95735.75;1831674;78;21006;-68
2022/02/23 04:56:47;;;;;;;11.00;6.27;;;;;;;-1.40;81.33;95744.67;1831914;78;20975;-68
2022/02/23 04:59:14;;;;;;;3.97;2.50;;;;;;;-1.43;81.25;95746.30;1831853;78;21104;-68
2022/02/23 05:01:41;;;;;;;6.23;2.77;;;;;;;-1.34;81.40;95744.84;1831511;78;21017;-68
2022/02/23 05:04:08;;;;;;;5.43;2.67;;;;;;;-1.23;81.31;95748.19;1832067;78;21002;-68
2022/02/23 05:06:35;;;;;;;4.07;2.53;;;;;;;-1.18;80.92;95753.95;1831874;78;21003;-67
2022/02/23 05:09:02;;;;;;;6.13;2.57;;;;;;;-1.19;80.59;95750.88;1831738;78;20999;-68
2022/02/23 05:11:28;;;;;;;8.73;3.87;;;;;;;-1.27;80.17;95749.79;1831907;78;21038;-68
2022/02/23 05:13:55;;;;;;;5.00;3.27;;;;;;;-1.29;80.78;95750.16;1831679;78;21053;-68
2022/02/23 05:16:22;;;;;;;6.50;3.47;;;;;;;-1.20;81.07;95755.61;1832005;78;21480;-68
2022/02/23 05:18:49;;;;;;;7.07;4.07;;;;;;;-1.15;81.23;95760.50;1831762;78;21006;-67
2022/02/23 05:21:16;;;;;;;6.50;3.90;;;;;;;-1.20;80.56;95758.63;1831454;78;20986;-68
2022/02/23 05:23:43;;;;;;;4.70;3.27;;;;;;;-1.23;80.59;95763.72;1826899;78;21057;-68
2022/02/23 05:26:11;;;;;;;76.70;28.90;;;;;;;-1.23;80.79;95768.47;1825912;78;21090;-68
2022/02/23 05:28:38;;;;;;;11.83;4.67;;;;;;;-1.21;81.10;95766.81;1825608;78;21079;-67
2022/02/23 05:31:05;;;;;;;20.80;10.20;;;;;;;-1.23;80.84;95772.36;1825706;78;22925;-68
2022/02/23 05:33:32;;;;;;;31.27;14.43;;;;;;;-1.28;81.44;95774.36;1825852;78;21085;-68
2022/02/23 05:36:00;;;;;;;25.57;14.07;;;;;;;-1.23;81.80;95771.48;1820968;78;21097;-67
2022/02/23 05:38:27;;;;;;;25.20;12.33;;;;;;;-1.16;81.69;95790.22;1825862;78;21022;-68
2022/02/23 05:40:55;;;;;;;23.67;13.43;;;;;;;-1.11;81.61;95783.47;1825879;78;20982;-68
2022/02/23 05:43:22;;;;;;;27.20;15.70;;;;;;;-1.03;81.39;95791.06;1820930;78;21011;-68
2022/02/23 05:45:49;;;;;;;20.13;11.97;;;;;;;-1.02;81.03;95791.94;1825724;78;21018;-68
2022/02/23 05:48:16;;;;;;;18.17;12.20;;;;;;;-1.03;80.73;95788.86;1826022;78;21018;-68
2022/02/23 05:50:44;;;;;;;22.03;11.90;;;;;;;-1.13;81.13;95796.39;1826073;78;21010;-68
2022/02/23 05:53:11;;;;;;;20.57;11.43;;;;;;;-1.13;81.22;95794.22;1825818;78;21057;-68
2022/02/23 05:55:39;;;;;;;39.50;18.33;;;;;;;-1.18;81.47;95799.68;1825838;78;21041;-68
2022/02/23 05:58:06;;;;;;;34.60;13.80;;;;;;;-1.21;81.11;95796.98;1825129;77;21025;-68
2022/02/23 06:00:32;;;;;;;137.80;51.93;;;;;;;-1.17;81.12;95804.89;1824953;78;21102;-71
2022/02/23 06:02:59;;;;;;;186.93;69.40;;;;;;;-1.27;82.34;95806.73;1824209;78;21018;-66
2022/02/23 06:05:26;;;;;;;98.17;41.00;;;;;;;-1.23;82.42;95799.54;1824590;78;20987;-68
2022/02/23 06:07:54;;;;;;;29.27;13.03;;;;;;;-1.18;81.87;95801.84;1823215;78;22268;-67
2022/02/23 06:10:24;;;;;;;13.10;6.83;;;;;;;-1.07;81.97;95803.88;1824163;78;21117;-71
2022/02/23 06:12:49;;;;;;;16.23;5.53;;;;;;;-0.97;81.76;95807.19;1824252;78;21041;-67
2022/02/23 06:15:16;;;;;;;4.00;2.50;;;;;;;-0.86;81.79;95805.77;1825076;78;21005;-66
2022/02/23 06:17:42;;;;;;;6.10;3.60;;;;;;;-0.78;81.77;95810.77;1824191;78;21570;-68
2022/02/23 06:20:10;;;;;;;5.63;2.97;;;;;;;-0.75;82.12;95816.46;1824890;78;20982;-66
2022/02/23 06:22:37;;;;;;;64.17;30.30;;;;;;;-0.60;82.51;95814.72;1824811;78;21053;-68
2022/02/23 06:25:06;;;;;;;114.50;50.00;;;;;;;-0.47;82.67;95803.84;1825837;78;21010;-65
2022/02/23 06:27:32;;;;;;;106.97;48.13;;;;;;;-0.36;82.46;95811.90;1825208;78;21128;-67
2022/02/23 06:29:59;;;;;;;66.13;31.87;;;;;;;-0.31;81.66;95815.49;1825970;78;21499;-66
2022/02/23 06:32:25;;;;;;;49.03;26.03;;;;;;;-0.25;81.41;95819.56;1824218;78;21076;-66
2022/02/23 06:34:52;;;;;;;45.17;24.70;;;;;;;-0.19;81.35;95826.19;1824194;78;21060;-69
2022/02/23 06:37:19;;;;;;;60.30;30.53;;;;;;;-0.16;81.08;95836.64;1825143;78;21065;-66
2022/02/23 06:39:46;;;;;;;65.97;34.00;;;;;;;-0.16;80.98;95838.36;1824919;78;21041;-68
2022/02/23 06:42:13;;;;;;;58.23;31.47;;;;;;;-0.17;80.65;95845.27;1824406;78;21014;-66
2022/02/23 06:44:40;;;;;;;72.50;37.13;;;;;;;-0.25;80.57;95855.87;1824254;78;21062;-67
2022/02/23 06:47:06;;;;;;;26.63;13.40;;;;;;;-0.30;81.65;95859.63;1825551;78;20958;-64
2022/02/23 06:49:35;;;;;;;22.80;12.93;;;;;;;-0.28;81.47;95859.64;1826065;78;21037;-66
2022/02/23 06:52:02;;;;;;;48.40;23.80;;;;;;;-0.23;81.39;95859.35;1825830;78;20983;-69
2022/02/23 06:54:29;;;;;;;34.90;18.70;;;;;;;-0.19;81.54;95861.20;1825722;78;21005;-69
2022/02/23 06:56:56;;;;;;;69.07;32.27;;;;;;;-0.13;81.68;95865.67;1824939;78;21050;-71
2022/02/23 06:59:23;;;;;;;83.97;39.93;;;;;;;-0.12;81.61;95870.91;1825345;78;21109;-69
2022/02/23 07:01:50;;;;;;;92.37;42.80;;;;;;;-0.11;81.22;95867.89;1824271;78;21538;-72
2022/02/23 07:04:16;;;;;;;50.33;25.33;;;;;;;-0.12;81.51;95873.50;1824563;78;21566;-71
2022/02/23 07:06:44;;;;;;;33.13;17.77;;;;;;;-0.10;81.60;95865.74;1824682;78;21112;-71
2022/02/23 07:09:10;;;;;;;16.73;8.07;;;;;;;-0.08;81.41;95875.75;1825490;78;20993;-69
2022/02/23 07:11:38;;;;;;;27.77;19.73;;;;;;;-0.04;80.83;95876.30;1825334;78;21013;-68
2022/02/23 07:14:05;;;;;;;24.50;19.37;;;;;;;0.11;80.82;95879.30;1824972;78;21562;-67
2022/02/23 07:16:32;;;;;;;13.03;7.90;;;;;;;0.29;80.35;95876.29;1825841;78;21062;-67
2022/02/23 07:18:59;;;;;;;10.17;5.10;;;;;;;0.62;77.90;95881.86;1786767;80;21022;-70
2022/02/23 07:21:25;;;;;;;7.87;3.90;;;;;;;0.95;75.95;95879.17;1826121;78;20959;-71
2022/02/23 07:23:52;;;;;;;7.57;4.37;;;;;;;1.21;75.61;95879.77;1825876;78;21501;-67
2022/02/23 07:26:20;;;;;;;5.37;2.90;;;;;;;1.51;73.07;95886.45;1825316;78;21026;-70
2022/02/23 07:28:47;;;;;;;8.10;3.30;;;;;;;1.76;70.60;95881.76;1824930;78;21078;-68
2022/02/23 07:31:19;;;;;;;4.43;2.33;;;;;;;2.03;69.13;95875.78;1825277;78;21038;-69
2022/02/23 07:33:47;;;;;;;7.17;4.17;;;;;;;2.31;66.30;95873.25;1825041;78;21045;-68
2022/02/23 07:36:15;;;;;;;8.67;4.23;;;;;;;2.63;67.30;95873.38;1824827;78;21068;-68
2022/02/23 07:38:43;;;;;;;7.40;3.97;;;;;;;2.90;63.33;95876.42;1815688;78;21000;-70
2022/02/23 07:41:13;;;;;;;3.80;2.87;;;;;;;3.18;63.33;95875.09;1824334;78;20988;-69
2022/02/23 07:43:39;;;;;;;16.27;4.93;;;;;;;3.35;62.43;95879.66;1824352;78;21169;-70
2022/02/23 07:46:10;;;;;;;3.57;2.60;;;;;;;3.34;62.31;95882.70;1824569;78;21077;-71
2022/02/23 07:48:38;;;;;;;4.87;3.00;;;;;;;3.29;60.12;95876.98;1824712;78;21103;-70
2022/02/23 07:51:05;;;;;;;10.10;2.67;;;;;;;3.30;61.22;95890.05;1806151;78;21011;-70
2022/02/23 07:53:32;;;;;;;4.77;2.30;;;;;;;3.29;60.49;95887.41;1792781;79;21109;-70
2022/02/23 07:55:59;;;;;;;6.90;3.07;;;;;;;3.23;59.04;95879.08;1792919;79;20991;-69
2022/02/23 07:58:25;;;;;;;4.47;2.90;;;;;;;3.23;60.62;95881.69;1792175;79;21122;-69
2022/02/23 08:00:52;;;;;;;5.50;2.60;;;;;;;3.20;59.22;95877.30;1792803;79;21438;-69
2022/02/23 08:03:19;;;;;;;4.70;2.07;;;;;;;3.22;59.34;95876.00;1791900;79;21206;-69
2022/02/23 08:05:46;;;;;;;4.30;2.27;;;;;;;3.17;58.12;95871.14;1793553;79;21027;-69
2022/02/23 08:08:14;;;;;;;6.50;2.93;;;;;;;3.28;60.38;95884.36;1792005;79;21067;-68
2022/02/23 08:10:40;;;;;;;7.13;2.83;;;;;;;3.32;59.88;95877.02;1791876;79;21485;-69
2022/02/23 08:13:07;;;;;;;73.40;30.87;;;;;;;3.30;58.08;95866.58;1792225;79;21146;-68
2022/02/23 08:21:04;;;;;;;7.20;3.33;;;;;;;3.29;56.28;95871.76;1792365;80;21039;-73
2022/02/23 08:23:31;;;;;;;5.10;2.53;;;;;;;3.24;55.28;95867.78;1792406;79;22291;-69
2022/02/23 08:25:58;;;;;;;4.70;1.80;;;;;;;3.27;55.68;95874.33;1792703;80;21055;-68
2022/02/23 08:28:25;;;;;;;4.87;2.23;;;;;;;3.28;55.03;95868.28;1792758;79;21090;-71
2022/02/23 08:30:51;;;;;;;5.37;2.40;;;;;;;3.33;56.17;95878.34;1793897;80;21447;-68
2022/02/23 08:33:18;;;;;;;3.47;1.30;;;;;;;3.41;56.70;95881.06;1793323;79;21066;-68
2022/02/23 08:35:45;;;;;;;3.63;2.20;;;;;;;3.40;52.83;95878.89;1792921;80;21458;-71
2022/02/23 08:38:13;;;;;;;2.57;1.73;;;;;;;3.43;54.34;95872.84;1792467;80;21012;-69
2022/02/23 08:40:44;;;;;;;4.17;2.03;;;;;;;3.43;53.98;95871.09;1793333;79;21031;-70
2022/02/23 08:43:12;;;;;;;6.03;2.20;;;;;;;3.50;55.40;95872.47;1792837;79;22152;-70
2022/02/23 08:45:40;;;;;;;6.23;2.63;;;;;;;3.57;56.33;95867.78;1793835;80;21027;-68
2022/02/23 08:48:08;;;;;;;3.20;2.17;;;;;;;3.62;54.74;95869.59;1792310;79;21070;-71
2022/02/23 08:50:35;;;;;;;3.93;2.30;;;;;;;3.66;53.52;95871.83;1793338;79;21101;-69
2022/02/23 08:53:02;;;;;;;4.53;2.03;;;;;;;3.72;54.22;95869.27;1792793;80;21040;-68
2022/02/23 08:55:29;;;;;;;5.47;1.90;;;;;;;3.76;52.74;95868.91;1793621;79;21028;-72
2022/02/23 08:57:58;;;;;;;5.73;1.80;;;;;;;3.83;53.88;95874.61;1802024;78;20994;-68
2022/02/23 09:00:25;;;;;;;6.43;2.17;;;;;;;3.89;53.59;95876.02;1813262;78;21041;-71
2022/02/23 09:02:52;;;;;;;4.83;1.77;;;;;;;3.92;50.85;95881.27;1816919;78;20982;-70
2022/02/23 09:05:19;;;;;;;4.03;1.30;;;;;;;3.97;51.56;95878.27;1818866;78;20974;-69
2022/02/23 09:07:45;;;;;;;3.93;1.80;;;;;;;3.98;51.66;95879.14;1786575;78;21002;-72
2022/02/23 09:10:12;;;;;;;4.80;2.27;;;;;;;4.07;52.48;95891.88;1791088;80;21027;-70
2022/02/23 09:12:39;;;;;;;3.83;1.40;;;;;;;4.13;50.75;95889.75;1791810;80;21034;-69
2022/02/23 09:15:09;;;;;;;6.03;1.37;;;;;;;4.21;51.76;95891.14;1791751;80;20956;-72
2022/02/23 09:17:36;;;;;;;5.00;1.60;;;;;;;4.23;50.39;95894.22;1791692;80;21122;-69
2022/02/23 09:20:04;;;;;;;6.03;2.23;;;;;;;4.24;50.63;95895.98;1791854;80;21027;-68
2022/02/23 09:22:30;;;;;;;6.13;1.60;;;;;;;4.28;50.91;95897.78;1791784;80;21063;-68
2022/02/23 09:24:57;;;;;;;2.33;1.10;;;;;;;4.34;49.97;95906.11;1792016;80;21076;-68
2022/02/23 09:27:23;;;;;;;3.90;1.60;;;;;;;4.31;49.07;95899.12;1790842;80;21055;-69
2022/02/23 09:29:50;;;;;;;4.17;1.60;;;;;;;4.35;49.88;95910.45;1790994;80;21063;-69
2022/02/23 09:32:17;;;;;;;4.03;1.17;;;;;;;4.39;49.82;95913.56;1790501;80;21055;-69
2022/02/23 09:34:43;;;;;;;3.67;1.50;;;;;;;4.30;49.50;95916.94;1791174;78;21015;-72
2022/02/23 09:37:10;;;;;;;5.97;1.50;;;;;;;4.23;48.88;95917.72;1811862;78;21056;-69
2022/02/23 09:39:37;;;;;;;4.40;1.63;;;;;;;4.23;49.67;95918.16;1807040;78;21054;-68
2022/02/23 09:42:04;;;;;;;4.03;1.33;;;;;;;4.24;50.41;95926.02;1818938;78;21287;-72
2022/02/23 09:44:31;;;;;;;5.47;1.40;;;;;;;4.19;50.43;95922.48;1825610;78;21562;-68
2022/02/23 09:47:01;;;;;;;3.83;1.23;;;;;;;4.11;49.42;95917.18;1825738;78;21041;-71
2022/02/23 09:49:30;;;;;;;5.53;1.30;;;;;;;4.18;50.95;95918.10;1825687;78;21094;-68
2022/02/23 09:51:58;;;;;;;4.53;1.40;;;;;;;4.15;49.86;95916.77;1826062;78;20974;-68
2022/02/23 09:54:24;;;;;;;3.00;1.30;;;;;;;4.11;50.99;95922.84;1825731;78;21554;-68
2022/02/23 09:56:51;;;;;;;3.80;1.50;;;;;;;3.99;49.82;95915.72;1825312;78;20985;-71
2022/02/23 09:59:18;;;;;;;4.87;1.60;;;;;;;3.93;50.62;95905.63;1826132;78;21003;-68
2022/02/23 10:01:46;;;;;;;4.00;1.73;;;;;;;3.90;50.80;95920.39;1825253;78;21499;-68
2022/02/23 10:04:13;;;;;;;2.80;1.60;;;;;;;3.93;51.87;95917.38;1825385;78;21097;-68
2022/02/23 10:06:41;;;;;;;3.87;1.07;;;;;;;3.91;52.04;95914.77;1825543;78;21080;-67
2022/02/23 10:09:11;;;;;;;6.03;1.90;;;;;;;3.77;51.05;95922.84;1824669;78;21057;-69
2022/02/23 10:11:40;;;;;;;5.23;2.17;;;;;;;3.76;52.80;95914.58;1825734;78;21095;-67
2022/02/23 10:14:08;;;;;;;10.17;2.40;;;;;;;3.77;52.88;95905.44;1826027;78;20962;-67
2022/02/23 10:16:40;;;;;;;5.50;2.20;;;;;;;3.83;52.88;95924.20;1794041;78;21001;-76
2022/02/23 10:19:14;;;;;;;7.03;2.27;;;;;;;3.84;52.83;95911.19;1826026;78;21528;-67
2022/02/23 10:21:55;;;;;;;7.80;1.33;;;;;;;3.92;54.16;95914.33;1825985;78;21037;-67
2022/02/23 10:24:31;;;;;;;6.43;1.80;;;;;;;3.99;52.50;95921.38;1826012;78;21109;-67
2022/02/23 10:27:05;;;;;;;6.90;1.83;;;;;;;4.19;54.14;95907.25;1826197;78;21034;-67
2022/02/23 10:29:37;;;;;;;;;;;;;;;4.55;53.96;95890.63;1828737;78;20986;-67
2022/02/23 10:32:08;;;;;;;6.67;2.40;;;;;;;4.77;53.21;95905.22;1825922;78;20157;-67
2022/02/23 10:34:42;;;;;;;6.57;2.10;;;;;;;4.92;52.54;95902.73;1826180;78;21471;-68
2022/02/23 10:37:10;;;;;;;7.90;2.77;;;;;;;5.15;53.19;95894.19;1823761;78;21045;-67
2022/02/23 10:39:42;;;;;;;6.17;1.90;;;;;;;5.23;52.67;95904.70;1826178;78;21002;-67
2022/02/23 10:42:13;;;;;;;7.40;2.30;;;;;;;5.05;52.18;95896.29;1826278;78;20962;-67
2022/02/23 10:44:46;;;;;;;5.53;2.50;;;;;;;4.96;52.53;95892.75;1826121;78;20998;-67
2022/02/23 10:47:29;;;;;;;;;;;;;;;4.87;54.09;95895.72;1828838;78;20990;-67
2022/02/23 10:50:03;;;;;;;8.10;2.03;;;;;;;4.83;53.27;95903.08;1825808;78;20453;-67
2022/02/23 10:52:34;;;;;;;7.03;2.00;;;;;;;4.66;54.44;95884.22;1826112;78;21010;-67
2022/02/23 10:55:22;;;;;;;6.90;2.17;;;;;;;4.64;54.34;95890.30;1825757;78;21061;-67
2022/02/23 10:57:59;;;;;;;7.73;2.60;;;;;;;4.62;53.94;95894.63;1826156;78;21034;-67
2022/02/23 11:00:36;;;;;;;4.03;1.77;;;;;;;4.53;54.75;95891.47;1826663;78;20978;-67
2022/02/23 11:03:03;;;;;;;7.30;2.43;;;;;;;4.51;55.56;95874.90;1825465;78;20978;-68
2022/02/23 11:05:32;;;;;;;4.83;1.90;;;;;;;4.48;54.66;95877.49;1825712;78;21078;-68
2022/02/23 11:08:04;;;;;;;8.03;1.90;;;;;;;4.51;55.26;95874.50;1825854;78;21519;-67
2022/02/23 11:10:32;;;;;;;6.17;1.93;;;;;;;4.57;55.69;95867.58;1826076;78;21002;-68
2022/02/23 11:13:00;;;;;;;5.23;2.10;;;;;;;4.60;55.34;95858.01;1825744;78;20998;-68
2022/02/23 11:15:32;;;;;;;4.17;1.60;;;;;;;4.59;56.80;95851.48;1826020;78;21007;-68
2022/02/23 11:17:59;;;;;;;9.90;4.10;;;;;;;4.73;56.91;95855.94;1826010;78;21451;-67
2022/02/23 11:20:31;;;;;;;8.47;2.87;;;;;;;4.85;56.84;95856.47;1794567;78;21059;-67
2022/02/23 11:23:01;;;;;;;10.80;3.77;;;;;;;4.87;55.77;95860.42;1825920;78;20950;-67
2022/02/23 11:25:36;;;;;;;10.50;3.80;;;;;;;4.81;55.53;95863.84;1828367;78;21018;-67
2022/02/23 11:28:32;;;;;;;6.63;2.50;;;;;;;4.67;56.08;95863.73;1801505;78;21057;-67
2022/02/23 11:31:13;;;;;;;11.40;4.83;;;;;;;4.55;56.07;95868.42;1831928;78;20942;-67
2022/02/23 11:34:06;;;;;;;14.57;6.20;;;;;;;4.53;56.95;95874.48;1831714;78;20962;-67
2022/02/23 11:36:44;;;;;;;13.10;6.33;;;;;;;4.54;57.18;95870.59;1832466;78;20974;-67
2022/02/23 11:39:29;;;;;;;3.97;1.60;;;;;;;4.43;57.32;95863.07;1832048;78;21491;-67
2022/02/23 11:41:59;;;;;;;7.10;2.73;;;;;;;4.36;57.25;95857.78;1832091;78;20978;-67
2022/02/23 11:44:29;;;;;;;2.70;1.20;;;;;;;4.34;58.57;95863.88;1832023;78;21033;-67
2022/02/23 11:47:01;;;;;;;5.73;2.47;;;;;;;4.30;58.11;95863.83;1802385;78;20975;-67
2022/02/23 11:49:31;;;;;;;5.60;2.10;;;;;;;4.15;59.23;95867.15;1829506;78;21010;-67
2022/02/23 11:52:10;;;;;;;4.90;2.10;;;;;;;4.10;58.38;95867.53;1832249;78;21460;-67